Time;durP1;ratioP1;P1;durP2;ratioP2;P2;SDS_P1;SDS_P2;PMS_P1;PMS_P2;Temp;Humidity;BMP_temperature;BMP_pressure;BME280_temperature;BME280_humidity;BME280_pressure;Samples;Min_cycle;Max_cycle;Signal;HPM_P1;HPM_P2
2022/04/07 00:01:58;;;;;;;10.93;9.30;;;;;;;;;;5063073;28;20048;-34
2022/04/07 00:04:25;;;;;;;10.00;8.70;;;;;;;;;;5057113;28;20047;-32
2022/04/07 00:06:51;;;;;;;8.02;7.22;;;;;;;;;;5069980;28;20044;-32
2022/04/07 00:09:17;;;;;;;11.23;9.80;;;;;;;;;;5061524;28;20124;-30
2022/04/07 00:11:43;;;;;;;11.30;9.00;;;;;;;;;;5053586;28;20048;-32
2022/04/07 00:14:09;;;;;;;11.05;9.95;;;;;;;;;;5072101;28;20045;-32
2022/04/07 00:16:35;;;;;;;11.32;10.23;;;;;;;;;;5074388;28;20036;-33
2022/04/07 00:19:01;;;;;;;11.65;10.40;;;;;;;;;;5074990;28;20091;-33
2022/04/07 00:21:35;;;;;;;12.82;11.48;;;;;;;;;;5074826;28;20048;-28
2022/04/07 00:24:03;;;;;;;14.23;11.90;;;;;;;;;;5073106;28;20040;-29
2022/04/07 00:26:30;;;;;;;12.50;10.70;;;;;;;;;;5073012;28;20093;-30
2022/04/07 00:28:56;;;;;;;13.80;11.68;;;;;;;;;;5068604;28;20040;-29
2022/04/07 00:31:22;;;;;;;14.15;11.85;;;;;;;;;;5053446;28;20589;-29
2022/04/07 00:33:48;;;;;;;13.73;11.73;;;;;;;;;;5054248;28;20048;-28
2022/04/07 00:36:14;;;;;;;12.75;11.55;;;;;;;;;;5053189;28;20168;-28
2022/04/07 00:38:40;;;;;;;12.55;11.35;;;;;;;;;;5055130;28;20051;-28
2022/04/07 00:41:06;;;;;;;12.73;11.43;;;;;;;;;;5058645;28;20048;-29
2022/04/07 00:43:37;;;;;;;13.07;11.90;;;;;;;;;;5073123;28;20425;-28
2022/04/07 00:46:04;;;;;;;11.50;10.30;;;;;;;;;;5071807;28;20834;-28
2022/04/07 00:48:35;;;;;;;13.55;11.05;;;;;;;;;;5072322;28;20049;-29
2022/04/07 00:51:02;;;;;;;13.75;11.35;;;;;;;;;;5053697;28;20044;-29
2022/04/07 00:53:28;;;;;;;11.73;10.55;;;;;;;;;;5056910;28;20382;-28
2022/04/07 00:55:59;;;;;;;12.48;11.23;;;;;;;;;;5057838;28;20044;-29
2022/04/07 00:58:26;;;;;;;11.20;9.40;;;;;;;;;;5061886;28;20040;-28
2022/04/07 01:00:52;;;;;;;13.15;10.00;;;;;;;;;;5067337;28;20044;-29
2022/04/07 01:03:18;;;;;;;11.25;10.20;;;;;;;;;;5071497;28;20052;-28
2022/04/07 01:05:44;;;;;;;10.27;9.27;;;;;;;;;;5071993;28;20043;-29
2022/04/07 01:08:10;;;;;;;10.07;9.18;;;;;;;;;;5058075;28;20045;-29
2022/04/07 01:10:37;;;;;;;11.75;8.48;;;;;;;;;;5071016;28;20071;-28
2022/04/07 01:13:03;;;;;;;12.52;9.60;;;;;;;;;;5052630;28;20041;-28
2022/04/07 01:15:29;;;;;;;11.70;9.25;;;;;;;;;;5053278;28;20041;-29
2022/04/07 01:17:57;;;;;;;10.38;9.23;;;;;;;;;;5052968;28;20053;-30
2022/04/07 01:20:23;;;;;;;10.73;9.32;;;;;;;;;;5053061;28;20048;-27
2022/04/07 01:22:51;;;;;;;10.75;8.98;;;;;;;;;;5052736;28;20044;-28
2022/04/07 01:25:18;;;;;;;12.50;9.45;;;;;;;;;;5052585;28;20045;-28
2022/04/07 01:27:48;;;;;;;13.30;8.80;;;;;;;;;;5052642;28;20041;-29
2022/04/07 01:30:15;;;;;;;9.50;8.40;;;;;;;;;;5052955;28;20094;-29
2022/04/07 01:32:52;;;;;;;11.40;8.90;;;;;;;;;;5053021;28;20064;-30
2022/04/07 01:35:20;;;;;;;10.85;8.55;;;;;;;;;;5050987;28;20040;-27
2022/04/07 01:37:47;;;;;;;9.00;7.93;;;;;;;;;;5052303;28;20087;-30
2022/04/07 01:40:16;;;;;;;11.88;8.20;;;;;;;;;;5052281;28;20040;-27
2022/04/07 01:42:45;;;;;;;10.57;8.00;;;;;;;;;;5052249;28;20041;-29
2022/04/07 01:45:11;;;;;;;9.60;7.45;;;;;;;;;;5052571;28;20560;-27
2022/04/07 01:47:38;;;;;;;9.45;7.15;;;;;;;;;;5052111;28;20348;-32
2022/04/07 01:50:08;;;;;;;9.57;6.30;;;;;;;;;;5052333;28;20163;-30
2022/04/07 01:52:37;;;;;;;7.90;6.20;;;;;;;;;;5052610;28;20419;-28
2022/04/07 01:55:04;;;;;;;11.70;6.93;;;;;;;;;;5052411;28;20071;-28
2022/04/07 01:57:31;;;;;;;7.93;7.13;;;;;;;;;;5052340;28;20099;-29
2022/04/07 01:59:58;;;;;;;7.95;6.32;;;;;;;;;;5051997;28;20044;-30
2022/04/07 02:02:24;;;;;;;7.22;6.18;;;;;;;;;;5050895;28;20048;-28
2022/04/07 02:04:57;;;;;;;6.82;5.47;;;;;;;;;;5052312;28;20395;-29
2022/04/07 02:07:27;;;;;;;10.00;6.70;;;;;;;;;;5052211;28;20040;-29
2022/04/07 02:09:53;;;;;;;11.43;6.03;;;;;;;;;;5052144;28;20044;-29
2022/04/07 02:12:20;;;;;;;9.30;6.38;;;;;;;;;;5052101;28;20555;-28
2022/04/07 02:14:48;;;;;;;10.35;5.93;;;;;;;;;;5052161;28;20402;-30
2022/04/07 02:17:17;;;;;;;8.55;6.18;;;;;;;;;;5052196;28;20494;-28
2022/04/07 02:19:43;;;;;;;8.45;6.25;;;;;;;;;;5051976;28;20045;-29
2022/04/07 02:22:10;;;;;;;8.38;5.40;;;;;;;;;;5051871;28;20094;-30
2022/04/07 02:24:37;;;;;;;9.90;5.80;;;;;;;;;;5051870;28;20044;-28
2022/04/07 02:27:04;;;;;;;9.07;5.15;;;;;;;;;;5051382;28;20060;-29
2022/04/07 02:29:30;;;;;;;11.00;6.47;;;;;;;;;;5052015;28;20625;-28
2022/04/07 02:31:56;;;;;;;12.55;5.95;;;;;;;;;;5051585;28;20326;-27
2022/04/07 02:34:22;;;;;;;11.32;5.95;;;;;;;;;;5051501;28;20094;-29
2022/04/07 02:36:48;;;;;;;11.52;5.90;;;;;;;;;;5051318;28;20041;-30
2022/04/07 02:39:14;;;;;;;10.10;6.68;;;;;;;;;;5051313;28;20048;-29
2022/04/07 02:41:40;;;;;;;13.65;6.22;;;;;;;;;;5050618;28;20053;-27
2022/04/07 02:44:06;;;;;;;12.13;6.80;;;;;;;;;;5051734;28;20040;-30
2022/04/07 02:46:32;;;;;;;9.98;6.13;;;;;;;;;;5051203;28;20123;-29
2022/04/07 02:48:58;;;;;;;13.40;7.35;;;;;;;;;;5051432;28;20140;-29
2022/04/07 02:51:24;;;;;;;9.07;5.85;;;;;;;;;;5051384;28;20099;-30
2022/04/07 02:53:57;;;;;;;12.00;6.57;;;;;;;;;;5051430;28;20067;-28
2022/04/07 02:56:23;;;;;;;8.23;5.65;;;;;;;;;;5051377;28;20041;-27
2022/04/07 02:58:49;;;;;;;10.13;5.78;;;;;;;;;;5051399;28;20060;-27
2022/04/07 03:01:15;;;;;;;12.90;5.68;;;;;;;;;;5052648;28;20084;-30
2022/04/07 03:03:41;;;;;;;10.48;4.28;;;;;;;;;;5054644;28;20518;-29
2022/04/07 03:06:07;;;;;;;10.55;5.47;;;;;;;;;;5073632;28;20032;-32
2022/04/07 03:08:33;;;;;;;7.43;5.47;;;;;;;;;;5072635;28;20045;-32
2022/04/07 03:11:00;;;;;;;10.80;5.68;;;;;;;;;;5060334;28;20035;-31
2022/04/07 03:13:27;;;;;;;13.15;5.82;;;;;;;;;;5065761;28;20486;-34
2022/04/07 03:15:53;;;;;;;14.23;6.55;;;;;;;;;;5055592;28;20066;-32
2022/04/07 03:18:20;;;;;;;12.43;6.88;;;;;;;;;;5057202;28;20456;-32
2022/04/07 03:20:46;;;;;;;15.40;6.70;;;;;;;;;;5069464;28;20123;-32
2022/04/07 03:23:12;;;;;;;12.85;6.80;;;;;;;;;;5062101;28;20536;-35
2022/04/07 03:25:38;;;;;;;10.55;6.70;;;;;;;;;;5050943;28;20469;-33
2022/04/07 03:28:06;;;;;;;16.45;7.60;;;;;;;;;;5051625;28;20045;-34
2022/04/07 03:30:32;;;;;;;12.30;7.80;;;;;;;;;;5050824;28;20499;-33
2022/04/07 03:32:58;;;;;;;10.23;7.18;;;;;;;;;;5052920;28;20047;-31
2022/04/07 03:35:24;;;;;;;10.65;7.25;;;;;;;;;;5051027;28;20074;-35
2022/04/07 03:37:51;;;;;;;13.40;7.25;;;;;;;;;;5051024;28;20049;-32
2022/04/07 03:40:17;;;;;;;15.50;7.80;;;;;;;;;;5051341;28;20056;-31
2022/04/07 03:42:43;;;;;;;12.15;6.90;;;;;;;;;;5055098;28;20094;-33
2022/04/07 03:45:09;;;;;;;15.98;6.90;;;;;;;;;;5050624;28;20045;-31
2022/04/07 03:47:35;;;;;;;15.15;7.30;;;;;;;;;;5056134;28;20067;-34
2022/04/07 03:50:01;;;;;;;16.45;7.72;;;;;;;;;;5054670;28;20037;-34
2022/04/07 03:52:28;;;;;;;14.50;7.32;;;;;;;;;;5054495;28;20119;-35
2022/04/07 03:54:54;;;;;;;16.50;6.90;;;;;;;;;;5072790;28;20040;-33
2022/04/07 03:57:20;;;;;;;14.90;6.85;;;;;;;;;;5072830;28;20033;-31
2022/04/07 03:59:46;;;;;;;13.07;7.43;;;;;;;;;;5074232;28;20127;-34
2022/04/07 04:02:13;;;;;;;13.45;5.97;;;;;;;;;;5061932;28;20072;-33
2022/04/07 04:04:39;;;;;;;16.15;6.55;;;;;;;;;;5063029;28;20041;-32
2022/04/07 04:07:05;;;;;;;20.75;6.68;;;;;;;;;;5055156;28;20049;-35
2022/04/07 04:09:32;;;;;;;14.90;6.30;;;;;;;;;;5053358;28;20079;-33
2022/04/07 04:11:58;;;;;;;13.60;5.32;;;;;;;;;;5059021;28;20036;-32
2022/04/07 04:14:25;;;;;;;15.00;6.25;;;;;;;;;;5058420;28;20051;-31
2022/04/07 04:16:51;;;;;;;17.90;7.15;;;;;;;;;;5068114;28;20048;-34
2022/04/07 04:19:17;;;;;;;18.08;5.82;;;;;;;;;;5055388;28;20481;-35
2022/04/07 04:21:43;;;;;;;16.23;6.03;;;;;;;;;;5054491;28;20096;-32
2022/04/07 04:24:12;;;;;;;17.58;6.25;;;;;;;;;;5055155;28;20491;-35
2022/04/07 04:26:38;;;;;;;15.75;5.93;;;;;;;;;;5071911;28;20127;-32
2022/04/07 04:29:04;;;;;;;15.18;5.35;;;;;;;;;;5066812;28;20045;-32
2022/04/07 04:31:30;;;;;;;17.13;6.30;;;;;;;;;;5062098;28;20047;-33
2022/04/07 04:33:56;;;;;;;15.60;6.28;;;;;;;;;;5066985;28;20509;-34
2022/04/07 04:36:23;;;;;;;15.63;5.70;;;;;;;;;;5074124;28;20490;-35
2022/04/07 04:38:49;;;;;;;11.40;5.50;;;;;;;;;;5075287;28;20432;-34
2022/04/07 04:41:16;;;;;;;17.35;5.65;;;;;;;;;;5074893;28;20509;-34
2022/04/07 04:43:42;;;;;;;13.70;6.55;;;;;;;;;;5064762;28;20043;-31
2022/04/07 04:46:08;;;;;;;20.45;6.78;;;;;;;;;;5064787;28;20456;-33
2022/04/07 04:48:35;;;;;;;15.32;5.95;;;;;;;;;;5055010;28;20080;-32
2022/04/07 04:51:02;;;;;;;18.40;6.93;;;;;;;;;;5058811;28;20512;-32
2022/04/07 04:53:29;;;;;;;18.83;7.70;;;;;;;;;;5063862;28;20080;-32
2022/04/07 04:55:55;;;;;;;16.77;6.85;;;;;;;;;;5067691;28;20193;-33
2022/04/07 04:58:21;;;;;;;15.88;6.72;;;;;;;;;;5062834;28;20055;-31
2022/04/07 05:00:47;;;;;;;19.73;7.07;;;;;;;;;;5066299;28;20064;-33
2022/04/07 05:03:13;;;;;;;17.17;7.13;;;;;;;;;;5052028;28;20148;-31
2022/04/07 05:05:39;;;;;;;22.33;7.95;;;;;;;;;;5056786;28;20119;-32
2022/04/07 05:08:06;;;;;;;15.07;6.72;;;;;;;;;;5063412;28;20040;-32
2022/04/07 05:10:32;;;;;;;22.35;7.65;;;;;;;;;;5070180;28;20077;-33
2022/04/07 05:12:59;;;;;;;14.95;6.97;;;;;;;;;;5068069;28;20041;-32
2022/04/07 05:15:25;;;;;;;15.10;7.05;;;;;;;;;;5061376;28;20041;-32
2022/04/07 05:17:52;;;;;;;11.80;6.22;;;;;;;;;;5066414;28;20043;-34
2022/04/07 05:20:19;;;;;;;11.95;6.22;;;;;;;;;;5072390;28;20379;-31
2022/04/07 05:22:45;;;;;;;17.02;6.47;;;;;;;;;;5069991;28;20034;-33
2022/04/07 05:25:11;;;;;;;15.57;6.70;;;;;;;;;;5072981;28;20784;-33
2022/04/07 05:27:38;;;;;;;17.33;5.57;;;;;;;;;;5055409;28;20457;-31
2022/04/07 05:30:12;;;;;;;18.90;8.00;;;;;;;;;;5073598;28;20115;-29
2022/04/07 05:32:49;;;;;;;13.18;6.20;;;;;;;;;;5073811;28;20158;-29
2022/04/07 05:35:16;;;;;;;14.65;6.97;;;;;;;;;;5073532;28;20047;-29
2022/04/07 05:37:43;;;;;;;11.18;7.60;;;;;;;;;;5071979;28;20036;-29
2022/04/07 05:40:10;;;;;;;17.13;6.20;;;;;;;;;;5073253;28;20485;-29
2022/04/07 05:42:36;;;;;;;10.80;5.55;;;;;;;;;;5072812;28;20398;-31
2022/04/07 05:45:03;;;;;;;15.60;6.25;;;;;;;;;;5072555;28;20036;-31
2022/04/07 05:47:29;;;;;;;13.85;6.43;;;;;;;;;;5072562;28;20039;-30
2022/04/07 05:49:55;;;;;;;13.48;6.18;;;;;;;;;;5072380;28;20041;-30
2022/04/07 05:52:21;;;;;;;10.63;5.38;;;;;;;;;;5071037;28;20555;-28
2022/04/07 05:54:47;;;;;;;13.75;6.03;;;;;;;;;;5072179;28;20040;-29
2022/04/07 05:57:13;;;;;;;15.35;5.65;;;;;;;;;;5072486;28;20040;-30
2022/04/07 05:59:39;;;;;;;11.27;5.50;;;;;;;;;;5071812;28;20119;-31
2022/04/07 06:02:06;;;;;;;11.55;5.53;;;;;;;;;;5072126;28;20394;-30
2022/04/07 06:04:32;;;;;;;11.23;5.45;;;;;;;;;;5070581;28;20079;-31
2022/04/07 06:06:59;;;;;;;8.95;5.05;;;;;;;;;;5071946;28;20098;-31
2022/04/07 06:09:26;;;;;;;5.32;2.90;;;;;;;;;;5071057;28;20045;-31
2022/04/07 06:11:52;;;;;;;2.38;1.13;;;;;;;;;;5071838;28;20119;-32
2022/04/07 06:14:18;;;;;;;0.80;0.50;;;;;;;;;;5071387;28;20044;-31
2022/04/07 06:16:45;;;;;;;2.17;0.70;;;;;;;;;;5071931;28;20047;-31
2022/04/07 06:19:11;;;;;;;1.33;0.65;;;;;;;;;;5087216;28;20044;-31
2022/04/07 06:21:37;;;;;;;2.72;0.60;;;;;;;;;;5069131;28;20067;-30
2022/04/07 06:24:03;;;;;;;2.22;0.80;;;;;;;;;;5068114;28;20556;-31
2022/04/07 06:26:29;;;;;;;0.55;0.43;;;;;;;;;;5069934;28;20032;-30
2022/04/07 06:28:55;;;;;;;2.00;0.60;;;;;;;;;;5067534;28;20072;-29
2022/04/07 06:31:23;;;;;;;2.78;0.70;;;;;;;;;;5072999;28;20426;-30
2022/04/07 06:33:49;;;;;;;1.92;0.60;;;;;;;;;;5072071;28;20517;-33
2022/04/07 06:36:15;;;;;;;2.92;0.80;;;;;;;;;;5070460;28;20547;-36
2022/04/07 06:38:41;;;;;;;2.90;0.70;;;;;;;;;;5068186;28;20044;-37
2022/04/07 06:41:07;;;;;;;3.10;1.17;;;;;;;;;;5066736;28;20402;-34
2022/04/07 06:43:33;;;;;;;2.60;0.80;;;;;;;;;;5064375;28;20041;-34
2022/04/07 06:45:59;;;;;;;1.40;0.75;;;;;;;;;;5064585;28;20086;-34
2022/04/07 06:48:25;;;;;;;1.45;0.90;;;;;;;;;;5066742;28;20042;-34
2022/04/07 06:50:51;;;;;;;2.75;0.85;;;;;;;;;;5063033;28;20037;-31
2022/04/07 06:53:17;;;;;;;1.92;0.80;;;;;;;;;;5063643;28;20041;-34
2022/04/07 06:55:43;;;;;;;2.30;0.75;;;;;;;;;;5061837;28;20120;-33
2022/04/07 06:58:11;;;;;;;3.10;0.85;;;;;;;;;;5065656;28;20041;-33
2022/04/07 07:00:44;;;;;;;2.47;0.70;;;;;;;;;;5058045;28;20068;-34
2022/04/07 07:03:12;;;;;;;1.25;0.70;;;;;;;;;;5061876;28;20048;-36
2022/04/07 07:05:38;;;;;;;1.42;0.70;;;;;;;;;;5062798;28;20503;-34
2022/04/07 07:08:16;;;;;;;2.55;0.65;;;;;;;;;;5063389;28;20040;-33
2022/04/07 07:10:43;;;;;;;1.65;0.63;;;;;;;;;;5058656;28;20079;-33
2022/04/07 07:13:09;;;;;;;1.17;0.70;;;;;;;;;;5065165;28;20039;-36
2022/04/07 07:15:35;;;;;;;1.25;0.60;;;;;;;;;;5061907;28;20049;-32
2022/04/07 07:18:01;;;;;;;0.98;0.50;;;;;;;;;;5058613;28;20494;-34
2022/04/07 07:20:27;;;;;;;1.70;0.60;;;;;;;;;;5059584;28;20029;-33
2022/04/07 07:22:53;;;;;;;2.17;0.77;;;;;;;;;;5065930;28;20044;-34
2022/04/07 07:25:19;;;;;;;1.05;0.50;;;;;;;;;;5068056;28;20071;-35
2022/04/07 07:27:46;;;;;;;2.72;0.68;;;;;;;;;;5065887;28;20040;-38
2022/04/07 07:30:15;;;;;;;2.05;0.82;;;;;;;;;;5066160;28;20243;-37
2022/04/07 07:32:42;;;;;;;3.47;1.00;;;;;;;;;;5065269;28;20045;-35
2022/04/07 07:35:08;;;;;;;1.13;1.02;;;;;;;;;;5061012;28;20123;-35
2022/04/07 07:37:35;;;;;;;3.10;1.00;;;;;;;;;;5068112;28;20043;-36
2022/04/07 07:40:08;;;;;;;3.95;0.90;;;;;;;;;;5064948;28;20083;-33
2022/04/07 07:42:36;;;;;;;2.93;1.63;;;;;;;;;;5061368;28;20039;-33
2022/04/07 07:45:02;;;;;;;3.15;0.95;;;;;;;;;;5061560;28;20048;-34
2022/04/07 07:47:28;;;;;;;1.80;0.85;;;;;;;;;;5061934;28;20386;-33
2022/04/07 07:49:54;;;;;;;2.60;1.00;;;;;;;;;;5065403;28;20037;-33
2022/04/07 07:52:20;;;;;;;2.50;1.00;;;;;;;;;;5069135;28;20120;-35
2022/04/07 07:54:47;;;;;;;2.25;0.90;;;;;;;;;;5065042;28;20032;-34
2022/04/07 07:57:13;;;;;;;3.30;1.08;;;;;;;;;;5065157;28;20529;-31
2022/04/07 07:59:39;;;;;;;2.08;1.02;;;;;;;;;;5065867;28;20037;-34
2022/04/07 08:02:05;;;;;;;3.55;1.50;;;;;;;;;;5066720;28;20080;-33
2022/04/07 08:04:31;;;;;;;2.90;0.88;;;;;;;;;;5067621;28;20037;-34
2022/04/07 08:06:58;;;;;;;1.88;0.90;;;;;;;;;;5061449;28;20041;-35
2022/04/07 08:09:24;;;;;;;3.58;0.93;;;;;;;;;;5067221;28;20048;-34
2022/04/07 08:11:50;;;;;;;3.10;0.93;;;;;;;;;;5071720;28;20044;-32
2022/04/07 08:14:16;;;;;;;4.20;1.20;;;;;;;;;;5073640;28;20032;-35
2022/04/07 08:16:42;;;;;;;3.65;1.05;;;;;;;;;;5073688;28;20111;-32
2022/04/07 08:19:11;;;;;;;3.22;1.08;;;;;;;;;;5072271;28;20048;-32
2022/04/07 08:21:38;;;;;;;1.98;0.90;;;;;;;;;;5073227;28;20119;-39
2022/04/07 08:24:04;;;;;;;3.95;0.98;;;;;;;;;;5073190;28;20040;-34
2022/04/07 08:26:30;;;;;;;1.00;0.80;;;;;;;;;;5073302;28;20541;-34
2022/04/07 08:28:56;;;;;;;3.70;0.85;;;;;;;;;;5072909;28;20044;-37
2022/04/07 08:31:23;;;;;;;5.32;0.90;;;;;;;;;;5069566;28;20543;-33
2022/04/07 08:33:49;;;;;;;4.13;1.10;;;;;;;;;;5065512;28;20374;-35
2022/04/07 08:36:17;;;;;;;2.78;1.45;;;;;;;;;;5073244;28;20186;-32
2022/04/07 08:38:43;;;;;;;3.05;1.55;;;;;;;;;;5069549;28;20040;-36
2022/04/07 08:41:11;;;;;;;3.42;1.80;;;;;;;;;;5070009;28;20047;-35
2022/04/07 08:43:38;;;;;;;4.25;1.10;;;;;;;;;;5062837;28;20055;-36
2022/04/07 08:46:08;;;;;;;3.47;1.30;;;;;;;;;;5066666;28;20051;-35
2022/04/07 08:48:38;;;;;;;3.28;1.10;;;;;;;;;;5072264;28;20486;-34
2022/04/07 08:51:06;;;;;;;1.95;0.95;;;;;;;;;;5072048;28;20040;-35
2022/04/07 08:53:33;;;;;;;1.65;0.85;;;;;;;;;;5071500;28;20532;-34
2022/04/07 08:56:00;;;;;;;2.85;1.00;;;;;;;;;;5070704;28;20036;-33
2022/04/07 08:58:27;;;;;;;3.22;1.10;;;;;;;;;;5063791;28;20036;-32
2022/04/07 09:00:53;;;;;;;2.72;1.25;;;;;;;;;;5072536;28;20080;-35
2022/04/07 09:03:19;;;;;;;1.67;1.00;;;;;;;;;;5072985;28;20555;-33
2022/04/07 09:05:53;;;;;;;3.00;0.98;;;;;;;;;;5072598;28;20076;-32
2022/04/07 09:08:19;;;;;;;;;;;;;;;;;;5069811;28;20079;-33
2022/04/07 09:10:53;;;;;;;3.10;0.90;;;;;;;;;;5060532;28;20347;-37
2022/04/07 09:13:19;;;;;;;3.17;0.90;;;;;;;;;;5066354;28;20044;-34
2022/04/07 09:15:46;;;;;;;1.98;1.20;;;;;;;;;;5067466;28;20108;-35
2022/04/07 09:18:12;;;;;;;1.77;0.98;;;;;;;;;;5066432;28;20090;-33
2022/04/07 09:20:44;;;;;;;6.13;1.40;;;;;;;;;;5067987;28;20068;-37
2022/04/07 09:23:13;;;;;;;3.38;1.30;;;;;;;;;;5061879;28;20033;-34
2022/04/07 09:25:46;;;;;;;2.70;0.98;;;;;;;;;;5065333;28;20063;-36
2022/04/07 09:28:12;;;;;;;3.65;1.10;;;;;;;;;;5059177;28;20076;-34
2022/04/07 09:30:41;;;;;;;2.78;1.40;;;;;;;;;;5062126;28;20040;-34
2022/04/07 09:33:19;;;;;;;4.15;1.27;;;;;;;;;;5066389;28;20066;-34
2022/04/07 09:36:08;;;;;;;2.00;1.00;;;;;;;;;;5075799;28;20112;-33
2022/04/07 09:38:35;;;;;;;2.60;1.20;;;;;;;;;;5071933;28;20075;-34
2022/04/07 09:41:09;;;;;;;5.65;1.35;;;;;;;;;;5070110;28;20048;-34
2022/04/07 09:43:45;;;;;;;3.72;1.20;;;;;;;;;;5066993;28;20048;-34
2022/04/07 09:46:16;;;;;;;5.57;1.27;;;;;;;;;;5056978;28;20072;-37
2022/04/07 09:49:01;;;;;;;3.35;1.15;;;;;;;;;;5062285;28;20097;-33
2022/04/07 09:51:28;;;;;;;4.15;1.42;;;;;;;;;;5064089;28;20470;-36
2022/04/07 09:53:55;;;;;;;7.20;1.45;;;;;;;;;;5068953;28;20059;-36
2022/04/07 09:56:25;;;;;;;5.55;1.20;;;;;;;;;;5052524;28;20047;-30
2022/04/07 09:58:51;;;;;;;3.22;1.35;;;;;;;;;;5052393;28;20052;-31
2022/04/07 10:01:18;;;;;;;5.65;1.60;;;;;;;;;;5051777;28;20047;-32
2022/04/07 10:03:45;;;;;;;4.88;1.75;;;;;;;;;;5052063;28;20044;-33
2022/04/07 10:06:14;;;;;;;4.75;1.65;;;;;;;;;;5052009;28;20449;-31
2022/04/07 10:08:41;;;;;;;6.45;1.65;;;;;;;;;;5051612;28;20049;-31
2022/04/07 10:11:08;;;;;;;5.82;1.75;;;;;;;;;;5051515;28;20033;-31
2022/04/07 10:13:37;;;;;;;4.93;1.50;;;;;;;;;;5052247;28;20519;-31
2022/04/07 10:16:03;;;;;;;10.95;2.40;;;;;;;;;;5051668;28;20072;-30
2022/04/07 10:18:50;;;;;;;6.93;2.38;;;;;;;;;;5067336;28;20040;-30
2022/04/07 10:21:35;;;;;;;8.23;1.73;;;;;;;;;;5071438;28;20048;-31
2022/04/07 10:24:12;;;;;;;5.25;1.90;;;;;;;;;;5071368;28;20044;-30
2022/04/07 10:26:40;;;;;;;6.95;1.70;;;;;;;;;;5071314;28;20036;-30
2022/04/07 10:29:06;;;;;;;7.25;1.83;;;;;;;;;;5071525;28;20052;-30
2022/04/07 10:31:33;;;;;;;6.25;1.80;;;;;;;;;;5071923;28;20165;-30
2022/04/07 10:34:06;;;;;;;6.57;1.73;;;;;;;;;;5071633;28;20036;-31
2022/04/07 10:36:38;;;;;;;9.32;2.60;;;;;;;;;;5069793;28;20490;-33
2022/04/07 10:39:10;;;;;;;8.65;2.58;;;;;;;;;;5067549;28;20509;-31
2022/04/07 10:41:36;;;;;;;10.50;2.58;;;;;;;;;;5059138;28;20326;-33
2022/04/07 10:44:11;;;;;;;11.05;2.17;;;;;;;;;;5061747;28;20041;-37
2022/04/07 10:46:37;;;;;;;7.65;1.95;;;;;;;;;;5059999;28;20056;-35
2022/04/07 10:49:07;;;;;;;6.88;2.00;;;;;;;;;;5055974;28;20036;-33
2022/04/07 10:51:44;;;;;;;10.40;2.83;;;;;;;;;;5066453;28;20044;-32
2022/04/07 10:54:11;;;;;;;10.75;2.53;;;;;;;;;;5070680;28;20068;-31
2022/04/07 10:56:41;;;;;;;5.00;1.83;;;;;;;;;;5065437;28;20048;-35
2022/04/07 10:59:23;;;;;;;6.60;1.95;;;;;;;;;;5065950;28;20036;-33
2022/04/07 11:01:52;;;;;;;9.23;2.40;;;;;;;;;;5065310;28;20037;-35
2022/04/07 11:04:21;;;;;;;9.05;2.25;;;;;;;;;;5058999;28;20535;-34
2022/04/07 11:07:03;;;;;;;10.73;2.78;;;;;;;;;;5065347;28;20060;-32
2022/04/07 11:09:41;;;;;;;7.22;2.00;;;;;;;;;;5071143;28;20037;-32
2022/04/07 11:12:11;;;;;;;8.35;2.17;;;;;;;;;;5059787;28;20390;-34
2022/04/07 11:14:38;;;;;;;9.45;2.28;;;;;;;;;;5070220;28;20469;-35
2022/04/07 11:17:09;;;;;;;6.25;2.67;;;;;;;;;;5069644;28;20068;-37
2022/04/07 11:19:53;;;;;;;10.43;2.45;;;;;;;;;;5064740;28;20595;-34
2022/04/07 11:22:22;;;;;;;8.00;2.38;;;;;;;;;;5066863;28;20449;-32
2022/04/07 11:24:54;;;;;;;11.02;2.30;;;;;;;;;;5065085;28;20051;-33
2022/04/07 11:27:42;;;;;;;6.00;2.50;;;;;;;;;;5064501;28;20044;-34
2022/04/07 11:30:09;;;;;;;8.48;2.40;;;;;;;;;;5064247;28;20037;-32
2022/04/07 11:32:36;;;;;;;7.95;3.03;;;;;;;;;;5064743;28;20025;-34
2022/04/07 11:35:13;;;;;;;10.10;2.53;;;;;;;;;;5065481;28;20488;-33
2022/04/07 11:37:40;;;;;;;10.48;2.42;;;;;;;;;;5068288;28;20037;-33
2022/04/07 11:40:07;;;;;;;6.80;1.92;;;;;;;;;;5070458;28;20119;-33
2022/04/07 11:42:33;;;;;;;9.68;2.20;;;;;;;;;;5065027;28;20479;-35
2022/04/07 11:45:01;;;;;;;10.50;2.50;;;;;;;;;;5070378;28;20047;-30
2022/04/07 11:47:36;;;;;;;13.60;2.75;;;;;;;;;;5071382;28;20037;-35
2022/04/07 11:50:03;;;;;;;9.75;2.58;;;;;;;;;;5070009;28;20526;-34
2022/04/07 11:52:31;;;;;;;13.85;2.65;;;;;;;;;;5074431;28;20040;-32
2022/04/07 11:54:58;;;;;;;10.38;2.55;;;;;;;;;;5074727;28;20040;-33
2022/04/07 11:57:25;;;;;;;10.85;2.60;;;;;;;;;;5074611;28;20071;-32
2022/04/07 11:59:54;;;;;;;10.15;2.70;;;;;;;;;;5074028;28;20094;-31
2022/04/07 12:02:22;;;;;;;8.77;2.33;;;;;;;;;;5074419;28;20076;-31
2022/04/07 12:04:54;;;;;;;8.25;2.58;;;;;;;;;;5075067;28;20378;-31
2022/04/07 12:07:21;;;;;;;5.00;1.77;;;;;;;;;;5073859;28;20036;-31
2022/04/07 12:09:47;;;;;;;8.43;2.22;;;;;;;;;;5073636;28;20047;-32
2022/04/07 12:12:14;;;;;;;8.70;2.33;;;;;;;;;;5074637;28;20398;-32
2022/04/07 12:14:42;;;;;;;4.55;2.05;;;;;;;;;;5074522;28;20040;-32
2022/04/07 12:17:09;;;;;;;9.80;2.55;;;;;;;;;;5074092;28;20367;-31
2022/04/07 12:19:48;;;;;;;10.25;2.20;;;;;;;;;;5074467;28;20045;-31
2022/04/07 12:22:15;;;;;;;9.10;2.45;;;;;;;;;;5073178;28;20048;-34
2022/04/07 12:25:00;;;;;;;6.47;2.20;;;;;;;;;;5069130;28;20045;-33
2022/04/07 12:27:28;;;;;;;7.55;2.20;;;;;;;;;;5062086;28;20041;-34
2022/04/07 12:29:54;;;;;;;6.25;2.08;;;;;;;;;;5067301;28;20037;-31
2022/04/07 12:32:20;;;;;;;8.15;2.10;;;;;;;;;;5054529;28;20041;-33
2022/04/07 12:34:49;;;;;;;8.02;2.28;;;;;;;;;;5068708;28;20036;-33
2022/04/07 12:37:39;;;;;;;7.40;1.83;;;;;;;;;;5062747;28;20564;-35
2022/04/07 12:40:27;;;;;;;12.63;2.90;;;;;;;;;;5069219;28;20048;-32
2022/04/07 12:42:59;;;;;;;6.03;1.88;;;;;;;;;;5075246;28;20052;-32
2022/04/07 12:45:25;;;;;;;5.82;1.90;;;;;;;;;;5075068;28;20067;-32
2022/04/07 12:48:10;;;;;;;9.40;1.88;;;;;;;;;;5074461;28;20044;-31
2022/04/07 12:50:36;;;;;;;9.95;2.20;;;;;;;;;;5074564;28;20402;-32
2022/04/07 12:53:03;;;;;;;8.93;1.83;;;;;;;;;;5072550;28;20036;-31
2022/04/07 12:55:36;;;;;;;6.60;2.20;;;;;;;;;;5054113;28;20130;-32
2022/04/07 12:58:03;;;;;;;7.30;1.80;;;;;;;;;;5054376;28;20040;-30
2022/04/07 13:00:30;;;;;;;6.70;2.08;;;;;;;;;;5053981;28;20033;-32
2022/04/07 13:02:59;;;;;;;4.28;1.80;;;;;;;;;;5054140;28;20108;-32
2022/04/07 13:05:25;;;;;;;8.20;1.67;;;;;;;;;;5054248;28;20411;-34
2022/04/07 13:07:51;;;;;;;6.28;2.33;;;;;;;;;;5053482;28;20049;-37
2022/04/07 13:10:18;;;;;;;6.70;1.73;;;;;;;;;;5053936;28;20438;-30
2022/04/07 13:12:44;;;;;;;5.35;1.65;;;;;;;;;;5054038;28;20127;-31
2022/04/07 13:15:11;;;;;;;7.80;2.05;;;;;;;;;;5054199;28;20095;-31
2022/04/07 13:17:37;;;;;;;7.30;1.98;;;;;;;;;;5053759;28;20486;-32
2022/04/07 13:20:04;;;;;;;7.88;2.17;;;;;;;;;;5053512;28;20064;-31
2022/04/07 13:22:31;;;;;;;11.02;1.85;;;;;;;;;;5053653;28;20051;-32
2022/04/07 13:24:58;;;;;;;5.60;1.20;;;;;;;;;;5053634;28;20044;-34
2022/04/07 13:27:25;;;;;;;6.13;1.40;;;;;;;;;;5060183;28;20040;-35
2022/04/07 13:29:52;;;;;;;7.75;2.25;;;;;;;;;;5067713;28;20049;-34
2022/04/07 13:32:18;;;;;;;7.78;2.42;;;;;;;;;;5061883;28;20093;-36
2022/04/07 13:34:44;;;;;;;10.52;2.45;;;;;;;;;;5068939;28;20397;-36
2022/04/07 13:37:11;;;;;;;8.32;1.98;;;;;;;;;;5070404;28;20037;-33
2022/04/07 13:39:38;;;;;;;6.00;1.67;;;;;;;;;;5066133;28;20044;-35
2022/04/07 13:42:04;;;;;;;7.32;1.92;;;;;;;;;;5063770;28;20052;-34
2022/04/07 13:44:31;;;;;;;4.15;1.58;;;;;;;;;;5068723;28;20063;-35
2022/04/07 13:46:57;;;;;;;4.88;1.45;;;;;;;;;;5054375;28;20118;-32
2022/04/07 13:49:25;;;;;;;2.40;1.00;;;;;;;;;;5035038;28;20091;-33
2022/04/07 13:51:52;;;;;;;2.13;1.20;;;;;;;;;;5066013;28;20036;-31
2022/04/07 13:54:18;;;;;;;2.97;1.58;;;;;;;;;;5068686;28;20039;-33
2022/04/07 13:56:44;;;;;;;6.53;1.90;;;;;;;;;;5061348;28;20051;-36
2022/04/07 13:59:11;;;;;;;4.40;1.50;;;;;;;;;;5061096;28;20422;-32
2022/04/07 14:01:37;;;;;;;5.65;1.95;;;;;;;;;;5061366;28;20044;-33
2022/04/07 14:04:03;;;;;;;5.53;1.83;;;;;;;;;;5066125;28;20048;-30
2022/04/07 14:06:29;;;;;;;7.85;2.22;;;;;;;;;;5073227;28;20402;-30
2022/04/07 14:08:55;;;;;;;6.90;2.53;;;;;;;;;;5055156;28;20466;-32
2022/04/07 14:11:22;;;;;;;5.78;2.25;;;;;;;;;;5073290;28;20123;-32
2022/04/07 14:13:49;;;;;;;7.63;2.08;;;;;;;;;;5055194;28;20048;-30
2022/04/07 14:16:16;;;;;;;12.23;2.30;;;;;;;;;;5073445;28;20033;-36
2022/04/07 14:18:43;;;;;;;4.72;2.03;;;;;;;;;;5071753;28;20048;-38
2022/04/07 14:21:13;;;;;;;7.35;2.17;;;;;;;;;;5072783;28;20047;-31
2022/04/07 14:23:39;;;;;;;7.90;2.17;;;;;;;;;;5072985;28;20522;-31
2022/04/07 14:26:08;;;;;;;8.52;2.33;;;;;;;;;;5073150;28;20116;-31
2022/04/07 14:28:35;;;;;;;8.57;2.28;;;;;;;;;;5071805;28;20040;-30
2022/04/07 14:31:01;;;;;;;6.55;1.98;;;;;;;;;;5072755;28;20079;-30
2022/04/07 14:33:28;;;;;;;5.18;1.88;;;;;;;;;;5071973;28;20040;-31
2022/04/07 14:35:54;;;;;;;6.88;1.83;;;;;;;;;;5067834;28;20032;-35
2022/04/07 14:38:20;;;;;;;7.50;1.80;;;;;;;;;;5063384;28;20109;-33
2022/04/07 14:40:46;;;;;;;8.57;3.08;;;;;;;;;;5071360;28;20036;-34
2022/04/07 14:43:13;;;;;;;11.18;3.20;;;;;;;;;;5059921;28;20048;-31